sensor_id;sensor_type;location;lat;lon;timestamp;P1;durP1;ratioP1;P2;durP2;ratioP2
1591;SDS011;789;51.612;7.510;2023-05-07T00:01:50;14.60;;;13.10;;
1591;SDS011;789;51.612;7.510;2023-05-07T00:04:20;14.10;;;12.70;;
1591;SDS011;789;51.612;7.510;2023-05-07T00:06:48;14.20;;;13.00;;
1591;SDS011;789;51.612;7.510;2023-05-07T00:09:20;14.47;;;13.20;;
1591;SDS011;789;51.612;7.510;2023-05-07T00:11:49;15.63;;;14.10;;
1591;SDS011;789;51.612;7.510;2023-05-07T00:14:16;15.13;;;13.83;;
1591;SDS011;789;51.612;7.510;2023-05-07T00:16:46;16.00;;;14.40;;
1591;SDS011;789;51.612;7.510;2023-05-07T00:19:12;18.87;;;16.57;;
1591;SDS011;789;51.612;7.510;2023-05-07T00:21:39;17.20;;;15.60;;
1591;SDS011;789;51.612;7.510;2023-05-07T00:24:06;17.83;;;16.13;;
1591;SDS011;789;51.612;7.510;2023-05-07T00:26:35;17.10;;;15.43;;
1591;SDS011;789;51.612;7.510;2023-05-07T00:29:01;17.40;;;15.57;;
1591;SDS011;789;51.612;7.510;2023-05-07T00:31:39;17.60;;;15.80;;
1591;SDS011;789;51.612;7.510;2023-05-07T00:34:23;17.33;;;15.77;;
1591;SDS011;789;51.612;7.510;2023-05-07T00:36:50;16.83;;;15.33;;
1591;SDS011;789;51.612;7.510;2023-05-07T00:39:16;16.40;;;14.80;;
1591;SDS011;789;51.612;7.510;2023-05-07T00:41:45;15.07;;;13.77;;
1591;SDS011;789;51.612;7.510;2023-05-07T00:44:25;15.63;;;14.20;;
1591;SDS011;789;51.612;7.510;2023-05-07T00:46:53;15.10;;;13.60;;
1591;SDS011;789;51.612;7.510;2023-05-07T00:49:20;14.50;;;13.10;;
1591;SDS011;789;51.612;7.510;2023-05-07T00:51:47;15.27;;;13.87;;
1591;SDS011;789;51.612;7.510;2023-05-07T00:54:15;15.03;;;13.73;;
1591;SDS011;789;51.612;7.510;2023-05-07T00:56:44;14.10;;;13.00;;
1591;SDS011;789;51.612;7.510;2023-05-07T00:59:11;14.40;;;13.10;;
1591;SDS011;789;51.612;7.510;2023-05-07T01:01:38;14.50;;;13.20;;
1591;SDS011;789;51.612;7.510;2023-05-07T01:04:05;15.07;;;13.17;;
1591;SDS011;789;51.612;7.510;2023-05-07T01:06:31;14.97;;;13.67;;
1591;SDS011;789;51.612;7.510;2023-05-07T01:08:59;13.60;;;12.30;;
1591;SDS011;789;51.612;7.510;2023-05-07T01:11:26;13.23;;;12.10;;
1591;SDS011;789;51.612;7.510;2023-05-07T01:13:55;13.23;;;12.10;;
1591;SDS011;789;51.612;7.510;2023-05-07T01:16:24;14.30;;;12.83;;
1591;SDS011;789;51.612;7.510;2023-05-07T01:18:51;15.00;;;13.23;;
1591;SDS011;789;51.612;7.510;2023-05-07T01:21:18;14.07;;;12.70;;
1591;SDS011;789;51.612;7.510;2023-05-07T01:23:53;14.50;;;13.27;;
1591;SDS011;789;51.612;7.510;2023-05-07T01:26:20;14.40;;;13.00;;
1591;SDS011;789;51.612;7.510;2023-05-07T01:28:48;14.10;;;12.90;;
1591;SDS011;789;51.612;7.510;2023-05-07T01:31:15;14.53;;;13.23;;
1591;SDS011;789;51.612;7.510;2023-05-07T01:33:43;14.70;;;13.37;;
1591;SDS011;789;51.612;7.510;2023-05-07T01:36:11;13.47;;;12.37;;
1591;SDS011;789;51.612;7.510;2023-05-07T01:38:40;14.20;;;12.90;;
1591;SDS011;789;51.612;7.510;2023-05-07T01:41:10;13.87;;;12.67;;
1591;SDS011;789;51.612;7.510;2023-05-07T01:43:38;14.13;;;12.70;;
1591;SDS011;789;51.612;7.510;2023-05-07T01:46:07;14.93;;;13.33;;
1591;SDS011;789;51.612;7.510;2023-05-07T01:48:35;14.03;;;12.77;;
1591;SDS011;789;51.612;7.510;2023-05-07T01:51:03;13.77;;;12.37;;
1591;SDS011;789;51.612;7.510;2023-05-07T01:53:35;13.70;;;12.47;;
1591;SDS011;789;51.612;7.510;2023-05-07T01:56:03;14.30;;;13.00;;
1591;SDS011;789;51.612;7.510;2023-05-07T01:58:32;14.83;;;13.33;;
1591;SDS011;789;51.612;7.510;2023-05-07T02:01:01;15.10;;;13.53;;
1591;SDS011;789;51.612;7.510;2023-05-07T02:03:28;15.40;;;14.10;;
1591;SDS011;789;51.612;7.510;2023-05-07T02:05:55;14.93;;;13.53;;
1591;SDS011;789;51.612;7.510;2023-05-07T02:08:26;16.20;;;14.83;;
1591;SDS011;789;51.612;7.510;2023-05-07T02:10:53;17.10;;;15.60;;
1591;SDS011;789;51.612;7.510;2023-05-07T02:13:19;17.07;;;15.40;;
1591;SDS011;789;51.612;7.510;2023-05-07T02:15:48;17.90;;;16.20;;
1591;SDS011;789;51.612;7.510;2023-05-07T02:18:15;18.60;;;17.00;;
1591;SDS011;789;51.612;7.510;2023-05-07T02:20:43;17.57;;;15.97;;
1591;SDS011;789;51.612;7.510;2023-05-07T02:23:10;18.57;;;16.80;;
1591;SDS011;789;51.612;7.510;2023-05-07T02:25:36;17.60;;;16.10;;
1591;SDS011;789;51.612;7.510;2023-05-07T02:28:06;19.37;;;17.40;;
1591;SDS011;789;51.612;7.510;2023-05-07T02:30:36;18.13;;;16.50;;
1591;SDS011;789;51.612;7.510;2023-05-07T02:33:04;17.70;;;16.17;;
1591;SDS011;789;51.612;7.510;2023-05-07T02:35:35;18.80;;;17.00;;
1591;SDS011;789;51.612;7.510;2023-05-07T02:38:02;18.83;;;17.13;;
1591;SDS011;789;51.612;7.510;2023-05-07T02:40:31;17.80;;;16.10;;
1591;SDS011;789;51.612;7.510;2023-05-07T02:42:58;19.33;;;17.60;;
1591;SDS011;789;51.612;7.510;2023-05-07T02:45:25;19.27;;;17.43;;
1591;SDS011;789;51.612;7.510;2023-05-07T02:47:52;19.60;;;17.60;;
1591;SDS011;789;51.612;7.510;2023-05-07T02:50:21;19.23;;;17.63;;
1591;SDS011;789;51.612;7.510;2023-05-07T02:52:48;19.60;;;17.90;;
1591;SDS011;789;51.612;7.510;2023-05-07T02:55:14;19.70;;;17.93;;
1591;SDS011;789;51.612;7.510;2023-05-07T02:57:41;19.17;;;17.47;;
1591;SDS011;789;51.612;7.510;2023-05-07T03:00:12;17.27;;;15.57;;
1591;SDS011;789;51.612;7.510;2023-05-07T03:02:40;18.70;;;17.00;;
1591;SDS011;789;51.612;7.510;2023-05-07T03:05:07;19.87;;;17.97;;
1591;SDS011;789;51.612;7.510;2023-05-07T03:07:36;20.47;;;18.67;;
1591;SDS011;789;51.612;7.510;2023-05-07T03:10:03;19.93;;;17.77;;
1591;SDS011;789;51.612;7.510;2023-05-07T03:12:31;18.63;;;16.73;;
1591;SDS011;789;51.612;7.510;2023-05-07T03:14:58;18.17;;;16.37;;
1591;SDS011;789;51.612;7.510;2023-05-07T03:17:24;17.97;;;15.57;;
1591;SDS011;789;51.612;7.510;2023-05-07T03:19:51;16.37;;;14.97;;
1591;SDS011;789;51.612;7.510;2023-05-07T03:22:18;18.10;;;16.50;;
1591;SDS011;789;51.612;7.510;2023-05-07T03:24:48;17.53;;;15.83;;
1591;SDS011;789;51.612;7.510;2023-05-07T03:27:14;15.10;;;13.80;;
1591;SDS011;789;51.612;7.510;2023-05-07T03:29:41;15.47;;;14.07;;
1591;SDS011;789;51.612;7.510;2023-05-07T03:32:08;16.57;;;14.90;;
1591;SDS011;789;51.612;7.510;2023-05-07T03:34:35;16.40;;;14.90;;
1591;SDS011;789;51.612;7.510;2023-05-07T03:37:02;15.37;;;14.03;;
1591;SDS011;789;51.612;7.510;2023-05-07T03:39:28;16.13;;;14.53;;
1591;SDS011;789;51.612;7.510;2023-05-07T03:41:57;14.30;;;13.10;;
1591;SDS011;789;51.612;7.510;2023-05-07T03:44:24;18.23;;;14.90;;
1591;SDS011;789;51.612;7.510;2023-05-07T03:46:51;15.57;;;14.00;;
1591;SDS011;789;51.612;7.510;2023-05-07T03:49:17;15.57;;;14.20;;
1591;SDS011;789;51.612;7.510;2023-05-07T03:51:44;14.93;;;13.67;;
1591;SDS011;789;51.612;7.510;2023-05-07T03:54:11;16.13;;;14.20;;
1591;SDS011;789;51.612;7.510;2023-05-07T03:56:38;17.10;;;15.47;;
1591;SDS011;789;51.612;7.510;2023-05-07T03:59:06;16.50;;;14.73;;
1591;SDS011;789;51.612;7.510;2023-05-07T04:01:33;17.37;;;15.87;;
1591;SDS011;789;51.612;7.510;2023-05-07T04:04:00;17.50;;;15.90;;
1591;SDS011;789;51.612;7.510;2023-05-07T04:06:28;17.97;;;16.17;;
1591;SDS011;789;51.612;7.510;2023-05-07T04:08:55;19.33;;;17.40;;
1591;SDS011;789;51.612;7.510;2023-05-07T04:11:22;21.07;;;19.00;;
1591;SDS011;789;51.612;7.510;2023-05-07T04:13:49;21.33;;;19.30;;
1591;SDS011;789;51.612;7.510;2023-05-07T04:16:17;22.60;;;20.50;;
1591;SDS011;789;51.612;7.510;2023-05-07T04:18:44;22.57;;;20.30;;
1591;SDS011;789;51.612;7.510;2023-05-07T04:21:14;22.83;;;20.73;;
1591;SDS011;789;51.612;7.510;2023-05-07T04:23:41;22.40;;;20.30;;
1591;SDS011;789;51.612;7.510;2023-05-07T04:26:08;23.80;;;21.30;;
1591;SDS011;789;51.612;7.510;2023-05-07T04:28:35;23.63;;;21.53;;
1591;SDS011;789;51.612;7.510;2023-05-07T04:31:02;22.43;;;20.17;;
1591;SDS011;789;51.612;7.510;2023-05-07T04:33:31;26.23;;;21.53;;
1591;SDS011;789;51.612;7.510;2023-05-07T04:35:58;24.27;;;21.87;;
1591;SDS011;789;51.612;7.510;2023-05-07T04:38:27;22.83;;;20.73;;
1591;SDS011;789;51.612;7.510;2023-05-07T04:40:54;23.63;;;21.13;;
1591;SDS011;789;51.612;7.510;2023-05-07T04:43:22;22.30;;;20.17;;
1591;SDS011;789;51.612;7.510;2023-05-07T04:45:49;22.17;;;19.87;;
1591;SDS011;789;51.612;7.510;2023-05-07T04:48:16;21.83;;;19.70;;
1591;SDS011;789;51.612;7.510;2023-05-07T04:50:48;22.90;;;19.83;;
1591;SDS011;789;51.612;7.510;2023-05-07T04:53:15;21.87;;;19.67;;
1591;SDS011;789;51.612;7.510;2023-05-07T04:55:42;20.20;;;18.30;;
1591;SDS011;789;51.612;7.510;2023-05-07T04:58:09;19.13;;;17.23;;
1591;SDS011;789;51.612;7.510;2023-05-07T05:00:36;20.60;;;18.53;;
1591;SDS011;789;51.612;7.510;2023-05-07T05:03:04;21.03;;;18.13;;
1591;SDS011;789;51.612;7.510;2023-05-07T05:05:31;19.97;;;17.87;;
1591;SDS011;789;51.612;7.510;2023-05-07T05:07:59;18.33;;;16.53;;
1591;SDS011;789;51.612;7.510;2023-05-07T05:10:26;18.97;;;17.27;;
1591;SDS011;789;51.612;7.510;2023-05-07T05:12:52;19.77;;;17.13;;
1591;SDS011;789;51.612;7.510;2023-05-07T05:15:20;18.40;;;16.27;;
1591;SDS011;789;51.612;7.510;2023-05-07T05:17:46;17.07;;;15.37;;
1591;SDS011;789;51.612;7.510;2023-05-07T05:20:13;17.30;;;14.70;;
1591;SDS011;789;51.612;7.510;2023-05-07T05:22:40;17.60;;;14.03;;
1591;SDS011;789;51.612;7.510;2023-05-07T05:25:09;14.70;;;13.33;;
1591;SDS011;789;51.612;7.510;2023-05-07T05:27:36;16.20;;;14.57;;
1591;SDS011;789;51.612;7.510;2023-05-07T05:30:03;15.27;;;13.87;;
1591;SDS011;789;51.612;7.510;2023-05-07T05:32:31;15.70;;;13.37;;
1591;SDS011;789;51.612;7.510;2023-05-07T05:34:57;14.60;;;13.27;;
1591;SDS011;789;51.612;7.510;2023-05-07T05:37:25;14.50;;;13.20;;
1591;SDS011;789;51.612;7.510;2023-05-07T05:39:52;14.80;;;13.27;;
1591;SDS011;789;51.612;7.510;2023-05-07T05:42:21;14.33;;;13.03;;
1591;SDS011;789;51.612;7.510;2023-05-07T05:44:48;15.23;;;13.67;;
1591;SDS011;789;51.612;7.510;2023-05-07T05:47:14;15.63;;;13.87;;
1591;SDS011;789;51.612;7.510;2023-05-07T05:49:41;15.33;;;13.93;;
1591;SDS011;789;51.612;7.510;2023-05-07T05:52:08;14.83;;;13.53;;
1591;SDS011;789;51.612;7.510;2023-05-07T05:54:35;15.70;;;14.10;;
1591;SDS011;789;51.612;7.510;2023-05-07T05:57:02;15.67;;;14.17;;
1591;SDS011;789;51.612;7.510;2023-05-07T05:59:32;16.50;;;14.73;;
1591;SDS011;789;51.612;7.510;2023-05-07T06:02:04;15.70;;;14.23;;
1591;SDS011;789;51.612;7.510;2023-05-07T06:04:31;15.73;;;13.87;;
1591;SDS011;789;51.612;7.510;2023-05-07T06:06:58;15.17;;;13.70;;
1591;SDS011;789;51.612;7.510;2023-05-07T06:09:25;15.43;;;13.80;;
1591;SDS011;789;51.612;7.510;2023-05-07T06:11:51;17.40;;;13.63;;
1591;SDS011;789;51.612;7.510;2023-05-07T06:14:18;14.87;;;13.47;;
1591;SDS011;789;51.612;7.510;2023-05-07T06:16:47;16.00;;;14.30;;
1591;SDS011;789;51.612;7.510;2023-05-07T06:19:13;16.20;;;14.60;;
1591;SDS011;789;51.612;7.510;2023-05-07T06:21:43;16.80;;;15.03;;
1591;SDS011;789;51.612;7.510;2023-05-07T06:24:10;16.63;;;14.87;;
1591;SDS011;789;51.612;7.510;2023-05-07T06:26:40;17.77;;;15.10;;
1591;SDS011;789;51.612;7.510;2023-05-07T06:29:06;16.27;;;14.77;;
1591;SDS011;789;51.612;7.510;2023-05-07T06:31:34;16.50;;;15.07;;
1591;SDS011;789;51.612;7.510;2023-05-07T06:34:02;17.10;;;15.37;;
1591;SDS011;789;51.612;7.510;2023-05-07T06:36:30;16.90;;;15.37;;
1591;SDS011;789;51.612;7.510;2023-05-07T06:38:57;18.07;;;16.27;;
1591;SDS011;789;51.612;7.510;2023-05-07T06:41:23;18.03;;;16.17;;
1591;SDS011;789;51.612;7.510;2023-05-07T06:43:50;23.10;;;16.17;;
1591;SDS011;789;51.612;7.510;2023-05-07T06:46:21;17.90;;;16.30;;
1591;SDS011;789;51.612;7.510;2023-05-07T06:48:47;17.47;;;15.93;;
1591;SDS011;789;51.612;7.510;2023-05-07T06:51:17;19.03;;;17.37;;
1591;SDS011;789;51.612;7.510;2023-05-07T06:53:44;19.30;;;17.40;;
1591;SDS011;789;51.612;7.510;2023-05-07T06:56:10;19.83;;;17.93;;
1591;SDS011;789;51.612;7.510;2023-05-07T06:58:37;19.73;;;17.93;;
1591;SDS011;789;51.612;7.510;2023-05-07T07:01:04;18.80;;;17.00;;
1591;SDS011;789;51.612;7.510;2023-05-07T07:03:31;20.10;;;18.10;;
1591;SDS011;789;51.612;7.510;2023-05-07T07:05:59;20.30;;;18.30;;
1591;SDS011;789;51.612;7.510;2023-05-07T07:08:31;21.20;;;19.20;;
1591;SDS011;789;51.612;7.510;2023-05-07T07:10:57;19.33;;;17.33;;
1591;SDS011;789;51.612;7.510;2023-05-07T07:13:24;21.20;;;19.30;;
1591;SDS011;789;51.612;7.510;2023-05-07T07:15:51;21.30;;;19.33;;
1591;SDS011;789;51.612;7.510;2023-05-07T07:18:18;20.60;;;17.80;;
1591;SDS011;789;51.612;7.510;2023-05-07T07:20:45;20.10;;;18.00;;
1591;SDS011;789;51.612;7.510;2023-05-07T07:23:12;19.57;;;17.67;;
1591;SDS011;789;51.612;7.510;2023-05-07T07:25:43;20.37;;;18.57;;
1591;SDS011;789;51.612;7.510;2023-05-07T07:28:10;20.23;;;18.27;;
1591;SDS011;789;51.612;7.510;2023-05-07T07:30:37;21.47;;;18.50;;
1591;SDS011;789;51.612;7.510;2023-05-07T07:33:04;19.27;;;17.10;;
1591;SDS011;789;51.612;7.510;2023-05-07T07:35:31;19.03;;;17.13;;
1591;SDS011;789;51.612;7.510;2023-05-07T07:37:58;19.63;;;17.83;;
1591;SDS011;789;51.612;7.510;2023-05-07T07:40:26;19.17;;;17.57;;
1591;SDS011;789;51.612;7.510;2023-05-07T07:42:54;20.03;;;17.93;;
1591;SDS011;789;51.612;7.510;2023-05-07T07:45:22;17.93;;;16.23;;
1591;SDS011;789;51.612;7.510;2023-05-07T07:47:49;18.87;;;17.07;;
1591;SDS011;789;51.612;7.510;2023-05-07T07:50:16;18.87;;;17.17;;
1591;SDS011;789;51.612;7.510;2023-05-07T07:52:43;20.10;;;17.60;;
1591;SDS011;789;51.612;7.510;2023-05-07T07:55:10;20.57;;;17.33;;
1591;SDS011;789;51.612;7.510;2023-05-07T07:57:37;18.37;;;16.50;;
1591;SDS011;789;51.612;7.510;2023-05-07T08:00:06;17.80;;;16.10;;
1591;SDS011;789;51.612;7.510;2023-05-07T08:02:34;20.97;;;16.60;;
1591;SDS011;789;51.612;7.510;2023-05-07T08:05:01;18.70;;;17.00;;
1591;SDS011;789;51.612;7.510;2023-05-07T08:07:28;18.67;;;17.07;;
1591;SDS011;789;51.612;7.510;2023-05-07T08:09:54;17.37;;;15.87;;
1591;SDS011;789;51.612;7.510;2023-05-07T08:12:21;16.87;;;15.27;;
1591;SDS011;789;51.612;7.510;2023-05-07T08:14:50;17.53;;;16.03;;
1591;SDS011;789;51.612;7.510;2023-05-07T08:17:18;17.37;;;15.73;;
1591;SDS011;789;51.612;7.510;2023-05-07T08:19:47;15.77;;;14.40;;
1591;SDS011;789;51.612;7.510;2023-05-07T08:22:13;17.23;;;15.40;;
1591;SDS011;789;51.612;7.510;2023-05-07T08:24:40;16.53;;;15.00;;
1591;SDS011;789;51.612;7.510;2023-05-07T08:27:07;17.83;;;15.97;;
1591;SDS011;789;51.612;7.510;2023-05-07T08:29:34;16.83;;;14.93;;
1591;SDS011;789;51.612;7.510;2023-05-07T08:32:05;16.50;;;15.10;;
1591;SDS011;789;51.612;7.510;2023-05-07T08:34:33;16.73;;;15.23;;
1591;SDS011;789;51.612;7.510;2023-05-07T08:37:00;16.43;;;15.10;;
1591;SDS011;789;51.612;7.510;2023-05-07T08:39:27;17.37;;;15.70;;
1591;SDS011;789;51.612;7.510;2023-05-07T08:41:54;17.33;;;13.97;;
1591;SDS011;789;51.612;7.510;2023-05-07T08:44:22;15.50;;;14.20;;
1591;SDS011;789;51.612;7.510;2023-05-07T08:46:53;18.73;;;17.03;;
1591;SDS011;789;51.612;7.510;2023-05-07T08:49:22;17.47;;;15.63;;
1591;SDS011;789;51.612;7.510;2023-05-07T08:51:51;17.07;;;15.47;;
1591;SDS011;789;51.612;7.510;2023-05-07T08:54:18;19.37;;;15.87;;
1591;SDS011;789;51.612;7.510;2023-05-07T08:56:47;15.40;;;13.90;;
1591;SDS011;789;51.612;7.510;2023-05-07T08:59:14;16.53;;;14.93;;
1591;SDS011;789;51.612;7.510;2023-05-07T09:01:40;17.10;;;15.50;;
1591;SDS011;789;51.612;7.510;2023-05-07T09:04:07;17.17;;;15.67;;
1591;SDS011;789;51.612;7.510;2023-05-07T09:06:34;16.73;;;15.00;;
1591;SDS011;789;51.612;7.510;2023-05-07T09:09:04;17.00;;;15.20;;
1591;SDS011;789;51.612;7.510;2023-05-07T09:11:31;20.47;;;16.57;;
1591;SDS011;789;51.612;7.510;2023-05-07T09:13:58;17.87;;;16.10;;
1591;SDS011;789;51.612;7.510;2023-05-07T09:16:26;16.30;;;14.90;;
1591;SDS011;789;51.612;7.510;2023-05-07T09:18:54;17.93;;;15.63;;
1591;SDS011;789;51.612;7.510;2023-05-07T09:21:23;17.00;;;15.33;;
1591;SDS011;789;51.612;7.510;2023-05-07T09:23:51;15.63;;;14.30;;
1591;SDS011;789;51.612;7.510;2023-05-07T09:26:19;15.67;;;14.27;;
1591;SDS011;789;51.612;7.510;2023-05-07T09:28:47;16.10;;;14.50;;
1591;SDS011;789;51.612;7.510;2023-05-07T09:31:14;16.27;;;14.60;;
1591;SDS011;789;51.612;7.510;2023-05-07T09:33:41;16.63;;;15.17;;
1591;SDS011;789;51.612;7.510;2023-05-07T09:36:09;19.43;;;16.40;;
1591;SDS011;789;51.612;7.510;2023-05-07T09:38:36;16.07;;;14.70;;
1591;SDS011;789;51.612;7.510;2023-05-07T09:41:04;16.20;;;14.60;;
1591;SDS011;789;51.612;7.510;2023-05-07T09:43:34;15.87;;;14.40;;
1591;SDS011;789;51.612;7.510;2023-05-07T09:46:11;15.73;;;14.33;;
1591;SDS011;789;51.612;7.510;2023-05-07T09:48:39;15.63;;;14.23;;
1591;SDS011;789;51.612;7.510;2023-05-07T09:51:21;15.60;;;14.10;;
1591;SDS011;789;51.612;7.510;2023-05-07T09:53:57;15.77;;;14.37;;
1591;SDS011;789;51.612;7.510;2023-05-07T09:56:30;15.73;;;13.50;;
1591;SDS011;789;51.612;7.510;2023-05-07T09:58:58;15.60;;;14.30;;
1591;SDS011;789;51.612;7.510;2023-05-07T10:01:27;15.70;;;14.40;;
1591;SDS011;789;51.612;7.510;2023-05-07T10:03:54;15.17;;;13.83;;
1591;SDS011;789;51.612;7.510;2023-05-07T10:06:23;13.83;;;12.63;;
1591;SDS011;789;51.612;7.510;2023-05-07T10:08:51;15.20;;;13.63;;
1591;SDS011;789;51.612;7.510;2023-05-07T10:11:19;14.30;;;13.00;;
1591;SDS011;789;51.612;7.510;2023-05-07T10:13:46;15.10;;;13.80;;
1591;SDS011;789;51.612;7.510;2023-05-07T10:16:15;14.30;;;13.10;;
1591;SDS011;789;51.612;7.510;2023-05-07T10:18:45;13.70;;;12.60;;
1591;SDS011;789;51.612;7.510;2023-05-07T10:21:14;16.07;;;13.17;;
1591;SDS011;789;51.612;7.510;2023-05-07T10:23:44;11.97;;;11.00;;
1591;SDS011;789;51.612;7.510;2023-05-07T10:26:14;15.60;;;14.30;;
1591;SDS011;789;51.612;7.510;2023-05-07T10:28:44;12.77;;;11.77;;
1591;SDS011;789;51.612;7.510;2023-05-07T10:31:25;15.77;;;14.37;;
1591;SDS011;789;51.612;7.510;2023-05-07T10:34:03;13.80;;;12.60;;
1591;SDS011;789;51.612;7.510;2023-05-07T10:36:36;12.30;;;11.10;;
1591;SDS011;789;51.612;7.510;2023-05-07T10:39:04;12.83;;;11.83;;
1591;SDS011;789;51.612;7.510;2023-05-07T10:41:32;12.50;;;11.50;;
1591;SDS011;789;51.612;7.510;2023-05-07T10:43:59;13.23;;;12.03;;
1591;SDS011;789;51.612;7.510;2023-05-07T10:46:28;14.63;;;13.37;;
1591;SDS011;789;51.612;7.510;2023-05-07T10:49:08;14.50;;;13.07;;
1591;SDS011;789;51.612;7.510;2023-05-07T10:51:37;14.67;;;13.27;;
1591;SDS011;789;51.612;7.510;2023-05-07T10:54:20;14.70;;;13.40;;
1591;SDS011;789;51.612;7.510;2023-05-07T10:56:49;13.40;;;12.30;;
1591;SDS011;789;51.612;7.510;2023-05-07T11:02:12;12.37;;;11.40;;
1591;SDS011;789;51.612;7.510;2023-05-07T11:04:40;15.63;;;14.33;;
1591;SDS011;789;51.612;7.510;2023-05-07T11:07:26;15.70;;;14.47;;
1591;SDS011;789;51.612;7.510;2023-05-07T11:09:56;11.97;;;10.83;;
1591;SDS011;789;51.612;7.510;2023-05-07T11:15:35;10.60;;;9.70;;
1591;SDS011;789;51.612;7.510;2023-05-07T11:18:05;12.83;;;11.60;;
1591;SDS011;789;51.612;7.510;2023-05-07T11:20:54;15.40;;;13.90;;
1591;SDS011;789;51.612;7.510;2023-05-07T11:26:24;14.40;;;13.20;;
1591;SDS011;789;51.612;7.510;2023-05-07T11:28:52;14.77;;;12.93;;
1591;SDS011;789;51.612;7.510;2023-05-07T11:31:22;13.60;;;12.50;;
1591;SDS011;789;51.612;7.510;2023-05-07T11:33:53;13.50;;;12.40;;
1591;SDS011;789;51.612;7.510;2023-05-07T11:36:21;12.70;;;11.63;;
1591;SDS011;789;51.612;7.510;2023-05-07T11:38:49;12.77;;;11.67;;
1591;SDS011;789;51.612;7.510;2023-05-07T11:41:16;13.40;;;12.30;;
1591;SDS011;789;51.612;7.510;2023-05-07T11:43:54;10.43;;;9.57;;
1591;SDS011;789;51.612;7.510;2023-05-07T11:46:22;13.10;;;11.70;;
1591;SDS011;789;51.612;7.510;2023-05-07T11:48:49;11.50;;;10.40;;
1591;SDS011;789;51.612;7.510;2023-05-07T11:51:21;11.30;;;10.30;;
1591;SDS011;789;51.612;7.510;2023-05-07T11:53:50;11.30;;;10.40;;
1591;SDS011;789;51.612;7.510;2023-05-07T11:56:18;11.27;;;10.20;;
1591;SDS011;789;51.612;7.510;2023-05-07T11:58:46;11.80;;;10.70;;
1591;SDS011;789;51.612;7.510;2023-05-07T12:01:14;9.80;;;8.90;;
1591;SDS011;789;51.612;7.510;2023-05-07T12:03:43;10.40;;;9.40;;
1591;SDS011;789;51.612;7.510;2023-05-07T12:06:11;10.33;;;8.67;;
1591;SDS011;789;51.612;7.510;2023-05-07T12:08:42;10.83;;;9.50;;
1591;SDS011;789;51.612;7.510;2023-05-07T12:11:12;10.33;;;9.53;;
1591;SDS011;789;51.612;7.510;2023-05-07T12:13:42;11.47;;;10.30;;
1591;SDS011;789;51.612;7.510;2023-05-07T12:16:09;10.47;;;9.57;;
1591;SDS011;789;51.612;7.510;2023-05-07T12:18:36;11.90;;;10.87;;
1591;SDS011;789;51.612;7.510;2023-05-07T12:21:04;11.63;;;10.43;;
1591;SDS011;789;51.612;7.510;2023-05-07T12:23:33;11.40;;;10.37;;
1591;SDS011;789;51.612;7.510;2023-05-07T12:26:03;10.50;;;9.50;;
1591;SDS011;789;51.612;7.510;2023-05-07T12:28:30;10.73;;;9.77;;
1591;SDS011;789;51.612;7.510;2023-05-07T12:31:02;10.07;;;9.17;;
1591;SDS011;789;51.612;7.510;2023-05-07T12:33:28;9.50;;;8.60;;
1591;SDS011;789;51.612;7.510;2023-05-07T12:35:57;9.30;;;8.50;;
1591;SDS011;789;51.612;7.510;2023-05-07T12:38:24;8.43;;;7.73;;
1591;SDS011;789;51.612;7.510;2023-05-07T12:40:53;12.00;;;8.23;;
1591;SDS011;789;51.612;7.510;2023-05-07T12:43:23;10.90;;;9.90;;
1591;SDS011;789;51.612;7.510;2023-05-07T12:45:53;10.50;;;9.60;;
1591;SDS011;789;51.612;7.510;2023-05-07T12:48:21;9.67;;;8.77;;
1591;SDS011;789;51.612;7.510;2023-05-07T12:50:52;10.30;;;9.30;;
1591;SDS011;789;51.612;7.510;2023-05-07T12:53:20;9.70;;;8.90;;
1591;SDS011;789;51.612;7.510;2023-05-07T12:55:49;8.40;;;7.60;;
1591;SDS011;789;51.612;7.510;2023-05-07T12:58:18;8.17;;;7.40;;
1591;SDS011;789;51.612;7.510;2023-05-07T13:00:50;7.40;;;6.70;;
1591;SDS011;789;51.612;7.510;2023-05-07T13:03:21;7.27;;;6.50;;
1591;SDS011;789;51.612;7.510;2023-05-07T13:05:49;7.00;;;6.40;;
1591;SDS011;789;51.612;7.510;2023-05-07T13:08:23;7.83;;;7.10;;
1591;SDS011;789;51.612;7.510;2023-05-07T13:10:52;7.90;;;7.10;;
1591;SDS011;789;51.612;7.510;2023-05-07T13:13:19;7.50;;;6.80;;
1591;SDS011;789;51.612;7.510;2023-05-07T13:15:46;7.60;;;6.90;;
1591;SDS011;789;51.612;7.510;2023-05-07T13:18:14;9.17;;;8.30;;
1591;SDS011;789;51.612;7.510;2023-05-07T13:20:41;7.93;;;7.27;;
1591;SDS011;789;51.612;7.510;2023-05-07T13:23:08;8.60;;;7.60;;
1591;SDS011;789;51.612;7.510;2023-05-07T13:25:35;8.27;;;7.47;;
1591;SDS011;789;51.612;7.510;2023-05-07T13:28:01;8.00;;;7.30;;
1591;SDS011;789;51.612;7.510;2023-05-07T13:30:29;9.07;;;8.37;;
1591;SDS011;789;51.612;7.510;2023-05-07T13:32:56;9.97;;;9.03;;
1591;SDS011;789;51.612;7.510;2023-05-07T13:35:24;8.60;;;7.87;;
1591;SDS011;789;51.612;7.510;2023-05-07T13:37:51;9.87;;;9.03;;
1591;SDS011;789;51.612;7.510;2023-05-07T13:40:19;9.87;;;8.97;;
1591;SDS011;789;51.612;7.510;2023-05-07T13:42:49;10.20;;;8.53;;
1591;SDS011;789;51.612;7.510;2023-05-07T13:45:17;9.70;;;8.90;;
1591;SDS011;789;51.612;7.510;2023-05-07T13:47:44;10.20;;;9.30;;
1591;SDS011;789;51.612;7.510;2023-05-07T13:50:12;10.33;;;9.43;;
1591;SDS011;789;51.612;7.510;2023-05-07T13:52:41;9.77;;;8.63;;
1591;SDS011;789;51.612;7.510;2023-05-07T13:55:10;10.60;;;9.67;;
1591;SDS011;789;51.612;7.510;2023-05-07T13:57:37;10.50;;;9.50;;
1591;SDS011;789;51.612;7.510;2023-05-07T14:00:05;9.77;;;8.80;;
1591;SDS011;789;51.612;7.510;2023-05-07T14:02:32;9.80;;;8.80;;
1591;SDS011;789;51.612;7.510;2023-05-07T14:04:59;9.70;;;8.80;;
1591;SDS011;789;51.612;7.510;2023-05-07T14:07:26;8.80;;;8.13;;
1591;SDS011;789;51.612;7.510;2023-05-07T14:09:55;9.77;;;8.97;;
1591;SDS011;789;51.612;7.510;2023-05-07T14:12:22;9.97;;;8.80;;
1591;SDS011;789;51.612;7.510;2023-05-07T14:14:49;9.70;;;8.80;;
1591;SDS011;789;51.612;7.510;2023-05-07T14:17:16;9.90;;;8.93;;
1591;SDS011;789;51.612;7.510;2023-05-07T14:19:48;9.57;;;8.57;;
1591;SDS011;789;51.612;7.510;2023-05-07T14:22:14;9.93;;;9.03;;
1591;SDS011;789;51.612;7.510;2023-05-07T14:24:41;13.23;;;9.60;;
1591;SDS011;789;51.612;7.510;2023-05-07T14:27:09;10.33;;;8.90;;
1591;SDS011;789;51.612;7.510;2023-05-07T14:29:36;9.97;;;8.97;;
1591;SDS011;789;51.612;7.510;2023-05-07T14:32:03;10.23;;;9.13;;
1591;SDS011;789;51.612;7.510;2023-05-07T14:34:32;9.83;;;8.83;;
1591;SDS011;789;51.612;7.510;2023-05-07T14:37:00;11.17;;;8.80;;
1591;SDS011;789;51.612;7.510;2023-05-07T14:39:27;9.33;;;8.43;;
1591;SDS011;789;51.612;7.510;2023-05-07T14:41:54;8.73;;;7.93;;
1591;SDS011;789;51.612;7.510;2023-05-07T14:44:22;8.30;;;7.50;;
1591;SDS011;789;51.612;7.510;2023-05-07T14:46:49;9.33;;;8.40;;
1591;SDS011;789;51.612;7.510;2023-05-07T14:49:16;8.13;;;7.43;;
1591;SDS011;789;51.612;7.510;2023-05-07T14:51:43;9.00;;;8.20;;
1591;SDS011;789;51.612;7.510;2023-05-07T14:54:11;9.40;;;8.10;;
1591;SDS011;789;51.612;7.510;2023-05-07T14:56:38;9.50;;;8.60;;
1591;SDS011;789;51.612;7.510;2023-05-07T14:59:05;9.43;;;8.53;;
1591;SDS011;789;51.612;7.510;2023-05-07T15:01:38;10.93;;;9.30;;
1591;SDS011;789;51.612;7.510;2023-05-07T15:04:07;10.17;;;8.73;;
1591;SDS011;789;51.612;7.510;2023-05-07T15:06:34;9.10;;;8.20;;
1591;SDS011;789;51.612;7.510;2023-05-07T15:09:01;10.97;;;9.87;;
1591;SDS011;789;51.612;7.510;2023-05-07T15:11:28;9.57;;;8.60;;
1591;SDS011;789;51.612;7.510;2023-05-07T15:13:55;10.37;;;9.33;;
1591;SDS011;789;51.612;7.510;2023-05-07T15:16:21;10.63;;;8.27;;
1591;SDS011;789;51.612;7.510;2023-05-07T15:18:49;8.60;;;7.90;;
1591;SDS011;789;51.612;7.510;2023-05-07T15:21:16;9.70;;;8.60;;
1591;SDS011;789;51.612;7.510;2023-05-07T15:23:43;8.97;;;8.17;;